Time;durP1;ratioP1;P1;durP2;ratioP2;P2;SDS_P1;SDS_P2;PMS_P1;PMS_P2;Temp;Humidity;BMP_temperature;BMP_pressure;BME280_temperature;BME280_humidity;BME280_pressure;Samples;Min_cycle;Max_cycle;Signal;HPM_P1;HPM_P2
2023/05/15 00:01:17;;;;;;;13.43;12.10;;;;;;;;;;5016122;28;20474;-66
2023/05/15 00:03:45;;;;;;;14.53;12.80;;;;;;;;;;5015742;28;20495;-65
2023/05/15 00:06:13;;;;;;;13.17;11.87;;;;;;;;;;5016141;28;20444;-65
2023/05/15 00:08:40;;;;;;;13.40;12.20;;;;;;;;;;5015524;28;20454;-65
2023/05/15 00:11:07;;;;;;;14.67;13.10;;;;;;;;;;5015659;28;20943;-65
2023/05/15 00:13:34;;;;;;;16.30;13.40;;;;;;;;;;5015515;28;20454;-65
2023/05/15 00:16:01;;;;;;;15.50;14.10;;;;;;;;;;5015962;28;20537;-65
2023/05/15 00:18:29;;;;;;;14.67;13.03;;;;;;;;;;5016010;28;20446;-65
2023/05/15 00:20:57;;;;;;;15.17;13.57;;;;;;;;;;5015850;28;20456;-65
2023/05/15 00:23:24;;;;;;;14.07;12.77;;;;;;;;;;5015665;28;20488;-68
2023/05/15 00:25:52;;;;;;;14.20;12.93;;;;;;;;;;5015435;28;20456;-65
2023/05/15 00:28:19;;;;;;;13.80;12.50;;;;;;;;;;5015330;28;20484;-65
2023/05/15 00:30:46;;;;;;;16.13;14.43;;;;;;;;;;5015664;28;20549;-65
2023/05/15 00:33:13;;;;;;;14.30;12.90;;;;;;;;;;5015461;28;20449;-65
2023/05/15 00:35:40;;;;;;;14.27;12.97;;;;;;;;;;5015270;28;20449;-65
2023/05/15 00:38:09;;;;;;;15.37;13.73;;;;;;;;;;5015365;28;20488;-65
2023/05/15 00:40:37;;;;;;;15.07;13.67;;;;;;;;;;5015749;28;20451;-65
2023/05/15 00:43:05;;;;;;;13.90;12.70;;;;;;;;;;5014890;28;20480;-65
2023/05/15 00:45:32;;;;;;;14.30;12.90;;;;;;;;;;5015092;28;20485;-65
2023/05/15 00:48:01;;;;;;;14.30;13.10;;;;;;;;;;5015179;28;20480;-65
2023/05/15 00:50:28;;;;;;;14.50;13.20;;;;;;;;;;5015467;28;20436;-65
2023/05/15 00:52:56;;;;;;;13.37;12.03;;;;;;;;;;5015409;28;20801;-66
2023/05/15 00:55:26;;;;;;;13.67;12.47;;;;;;;;;;5015148;28;20452;-65
2023/05/15 00:57:54;;;;;;;14.20;13.00;;;;;;;;;;5014467;28;20461;-65
2023/05/15 01:00:21;;;;;;;14.37;13.23;;;;;;;;;;5014772;28;20451;-65
2023/05/15 01:02:48;;;;;;;13.20;12.00;;;;;;;;;;5014738;28;20491;-66
2023/05/15 01:05:16;;;;;;;13.20;12.00;;;;;;;;;;5014684;28;20445;-65
2023/05/15 01:07:49;;;;;;;14.30;13.10;;;;;;;;;;5014969;28;20469;-66
2023/05/15 01:10:17;;;;;;;16.17;13.93;;;;;;;;;;5015050;28;20482;-65
2023/05/15 01:12:46;;;;;;;15.00;13.50;;;;;;;;;;5014791;28;20485;-66
2023/05/15 01:15:14;;;;;;;15.47;13.93;;;;;;;;;;5014830;28;20518;-65
2023/05/15 01:17:41;;;;;;;14.80;13.40;;;;;;;;;;5014451;28;20485;-65
2023/05/15 01:20:09;;;;;;;15.37;13.73;;;;;;;;;;5014692;28;20445;-65
2023/05/15 01:22:43;;;;;;;16.20;14.63;;;;;;;;;;5014541;28;20830;-65
2023/05/15 01:25:25;;;;;;;15.60;14.20;;;;;;;;;;5014592;28;20444;-65
2023/05/15 01:27:55;;;;;;;15.30;14.00;;;;;;;;;;4971693;28;20460;-66
2023/05/15 01:30:23;;;;;;;14.70;12.53;;;;;;;;;;5014550;28;20560;-66
2023/05/15 01:32:54;;;;;;;15.80;14.20;;;;;;;;;;5014669;28;20537;-66
2023/05/15 01:35:22;;;;;;;16.57;14.93;;;;;;;;;;5014154;28;20528;-65
2023/05/15 01:37:52;;;;;;;16.33;14.73;;;;;;;;;;5014515;28;20472;-65
2023/05/15 01:40:19;;;;;;;17.30;15.63;;;;;;;;;;5014003;28;20520;-65
2023/05/15 01:42:51;;;;;;;17.50;15.80;;;;;;;;;;5014253;28;20479;-65
2023/05/15 01:45:21;;;;;;;15.27;13.97;;;;;;;;;;5014288;28;20432;-65
2023/05/15 01:47:49;;;;;;;16.43;14.93;;;;;;;;;;5014619;28;20853;-65
2023/05/15 01:50:17;;;;;;;17.50;15.90;;;;;;;;;;5014211;28;20448;-65
2023/05/15 01:52:48;;;;;;;15.50;14.20;;;;;;;;;;5013880;28;20531;-65
2023/05/15 01:55:15;;;;;;;19.13;15.70;;;;;;;;;;5013779;28;20444;-64
2023/05/15 01:57:43;;;;;;;17.00;15.50;;;;;;;;;;5014512;28;20515;-65
2023/05/15 02:00:11;;;;;;;19.23;16.80;;;;;;;;;;5014065;28;20440;-65
2023/05/15 02:02:40;;;;;;;18.60;16.60;;;;;;;;;;5013564;28;20474;-65
2023/05/15 02:05:08;;;;;;;18.50;16.80;;;;;;;;;;5013965;28;20447;-65
2023/05/15 02:07:35;;;;;;;18.60;16.90;;;;;;;;;;5013522;28;20466;-65
2023/05/15 02:10:04;;;;;;;18.20;16.50;;;;;;;;;;5012824;28;20450;-65
2023/05/15 02:12:31;;;;;;;24.93;17.53;;;;;;;;;;5013471;28;20456;-65
2023/05/15 02:14:59;;;;;;;21.40;19.17;;;;;;;;;;5013605;28;20978;-65
2023/05/15 02:17:28;;;;;;;20.73;18.73;;;;;;;;;;5014635;28;20449;-65
2023/05/15 02:19:57;;;;;;;20.43;18.63;;;;;;;;;;5013744;28;20442;-65
2023/05/15 02:22:24;;;;;;;22.80;20.07;;;;;;;;;;5013863;28;20479;-65
2023/05/15 02:24:51;;;;;;;23.53;21.10;;;;;;;;;;5013380;28;20471;-65
2023/05/15 02:27:21;;;;;;;24.07;21.37;;;;;;;;;;5013793;28;20494;-65
2023/05/15 02:29:52;;;;;;;24.07;21.63;;;;;;;;;;5013601;28;20440;-65
2023/05/15 02:32:23;;;;;;;24.03;21.13;;;;;;;;;;5013675;28;20526;-65
2023/05/15 02:34:56;;;;;;;25.93;23.23;;;;;;;;;;5013873;28;20428;-65
2023/05/15 02:37:27;;;;;;;27.63;23.83;;;;;;;;;;5013302;28;20494;-65
2023/05/15 02:39:58;;;;;;;30.63;25.13;;;;;;;;;;5013938;28;20424;-65
2023/05/15 02:42:26;;;;;;;30.33;26.73;;;;;;;;;;5013618;28;20977;-65
2023/05/15 02:44:54;;;;;;;30.13;26.97;;;;;;;;;;5013858;28;20447;-65
2023/05/15 02:47:21;;;;;;;33.10;27.60;;;;;;;;;;5013495;28;20439;-64
2023/05/15 02:49:49;;;;;;;33.03;29.27;;;;;;;;;;5013348;28;20458;-65
2023/05/15 02:52:16;;;;;;;33.60;28.73;;;;;;;;;;5014168;28;20451;-65
2023/05/15 02:54:45;;;;;;;39.23;32.07;;;;;;;;;;5013037;28;21005;-65
2023/05/15 02:57:12;;;;;;;32.10;28.90;;;;;;;;;;5013787;28;20794;-65
2023/05/15 02:59:40;;;;;;;37.90;30.93;;;;;;;;;;5013378;28;20446;-65
2023/05/15 03:02:07;;;;;;;36.40;31.80;;;;;;;;;;5012910;28;20455;-65
2023/05/15 03:04:35;;;;;;;37.27;33.20;;;;;;;;;;5012930;28;20444;-65
2023/05/15 03:07:02;;;;;;;39.00;33.30;;;;;;;;;;5013120;28;20467;-64
2023/05/15 03:09:29;;;;;;;38.27;32.33;;;;;;;;;;5012897;28;20462;-64
2023/05/15 03:11:57;;;;;;;42.70;32.40;;;;;;;;;;5005541;28;20442;-65
2023/05/15 03:14:25;;;;;;;47.83;34.83;;;;;;;;;;4992795;28;20491;-65
2023/05/15 03:16:52;;;;;;;39.20;33.53;;;;;;;;;;4992961;28;20444;-65
2023/05/15 03:19:19;;;;;;;41.10;36.40;;;;;;;;;;4993074;28;20446;-65
2023/05/15 03:21:46;;;;;;;44.53;35.83;;;;;;;;;;4996678;28;20449;-65
2023/05/15 03:24:13;;;;;;;43.43;35.87;;;;;;;;;;4996765;28;20486;-65
2023/05/15 03:26:41;;;;;;;44.87;37.50;;;;;;;;;;4996338;28;21066;-64
2023/05/15 03:29:09;;;;;;;44.50;36.23;;;;;;;;;;4996631;28;20458;-66
2023/05/15 03:31:37;;;;;;;44.13;38.37;;;;;;;;;;4996588;28;20442;-65
2023/05/15 03:34:04;;;;;;;45.90;37.90;;;;;;;;;;4996440;28;20458;-65
2023/05/15 03:36:31;;;;;;;47.67;38.40;;;;;;;;;;4996637;28;20448;-65
2023/05/15 03:38:58;;;;;;;43.00;36.97;;;;;;;;;;4997089;28;20806;-65
2023/05/15 03:41:26;;;;;;;45.00;36.67;;;;;;;;;;4996248;28;20900;-65
2023/05/15 03:43:54;;;;;;;52.30;39.23;;;;;;;;;;4996474;28;20476;-65
2023/05/15 03:46:22;;;;;;;48.00;38.33;;;;;;;;;;4996545;28;20454;-65
2023/05/15 03:48:49;;;;;;;48.70;39.10;;;;;;;;;;4996427;28;20454;-65
2023/05/15 03:51:16;;;;;;;52.40;41.17;;;;;;;;;;4996222;28;20472;-66
2023/05/15 03:53:44;;;;;;;55.77;43.10;;;;;;;;;;4996170;28;20453;-65
2023/05/15 03:56:11;;;;;;;52.17;41.93;;;;;;;;;;4995938;28;20927;-65
2023/05/15 03:58:38;;;;;;;55.80;40.90;;;;;;;;;;4996561;28;20441;-65
2023/05/15 04:01:06;;;;;;;56.40;41.70;;;;;;;;;;4996037;28;20448;-65
2023/05/15 04:03:35;;;;;;;54.80;43.60;;;;;;;;;;4996237;28;20515;-65
2023/05/15 04:06:02;;;;;;;56.43;44.30;;;;;;;;;;4996135;28;20473;-65
2023/05/15 04:08:29;;;;;;;59.50;43.93;;;;;;;;;;4996002;28;20945;-65
2023/05/15 04:10:56;;;;;;;60.73;44.77;;;;;;;;;;4996253;28;20806;-65
2023/05/15 04:13:24;;;;;;;57.83;44.20;;;;;;;;;;4995992;28;20535;-65
2023/05/15 04:15:52;;;;;;;61.37;45.57;;;;;;;;;;4995825;28;20455;-65
2023/05/15 04:18:19;;;;;;;63.33;44.87;;;;;;;;;;4996184;28;20444;-65
2023/05/15 04:20:48;;;;;;;63.00;45.10;;;;;;;;;;4995952;28;20443;-65
2023/05/15 04:23:15;;;;;;;63.83;45.17;;;;;;;;;;4995555;28;20487;-66
2023/05/15 04:25:45;;;;;;;59.97;44.10;;;;;;;;;;4995610;28;20459;-65
2023/05/15 04:28:12;;;;;;;67.40;51.07;;;;;;;;;;4995960;28;20445;-65
2023/05/15 04:30:40;;;;;;;65.53;47.00;;;;;;;;;;4995807;28;20442;-65
2023/05/15 04:33:07;;;;;;;65.00;48.77;;;;;;;;;;4995001;28;20444;-65
2023/05/15 04:35:34;;;;;;;64.93;46.40;;;;;;;;;;4994947;28;20453;-65
2023/05/15 04:38:03;;;;;;;72.43;49.60;;;;;;;;;;4995344;28;20483;-65
2023/05/15 04:40:30;;;;;;;68.10;48.80;;;;;;;;;;4995264;28;20950;-66
2023/05/15 04:42:57;;;;;;;64.47;47.40;;;;;;;;;;4995520;28;20833;-68
2023/05/15 04:45:25;;;;;;;62.27;46.27;;;;;;;;;;4995571;28;20445;-72
2023/05/15 04:47:52;;;;;;;77.37;50.90;;;;;;;;;;4995281;28;20453;-66
2023/05/15 04:50:19;;;;;;;60.83;47.50;;;;;;;;;;4995501;28;20945;-65
2023/05/15 04:52:46;;;;;;;64.00;47.90;;;;;;;;;;4995430;28;20777;-65
2023/05/15 04:55:15;;;;;;;69.77;46.73;;;;;;;;;;4995041;28;20908;-66
2023/05/15 04:57:42;;;;;;;67.33;46.67;;;;;;;;;;4995321;28;20452;-66
2023/05/15 05:00:11;;;;;;;66.27;47.60;;;;;;;;;;4995024;28;20955;-66
2023/05/15 05:02:38;;;;;;;68.97;48.13;;;;;;;;;;4995084;28;20458;-65
2023/05/15 05:05:06;;;;;;;66.60;48.00;;;;;;;;;;4994900;28;20540;-65
2023/05/15 05:07:33;;;;;;;66.10;46.40;;;;;;;;;;4995093;28;20470;-65
2023/05/15 05:10:00;;;;;;;66.17;47.27;;;;;;;;;;4995215;28;20446;-65
2023/05/15 05:12:29;;;;;;;63.23;46.87;;;;;;;;;;4994858;28;20444;-65
2023/05/15 05:14:56;;;;;;;68.90;49.83;;;;;;;;;;4994748;28;20446;-65
2023/05/15 05:17:23;;;;;;;73.03;49.90;;;;;;;;;;4994758;28;20500;-65
2023/05/15 05:19:50;;;;;;;75.73;49.97;;;;;;;;;;4994720;28;20448;-65
2023/05/15 05:22:17;;;;;;;73.50;49.00;;;;;;;;;;4994565;28;20957;-65
2023/05/15 05:24:45;;;;;;;70.60;51.93;;;;;;;;;;4994465;28;20488;-65
2023/05/15 05:27:12;;;;;;;72.80;49.00;;;;;;;;;;4994394;28;20442;-65
2023/05/15 05:29:40;;;;;;;67.13;47.20;;;;;;;;;;4994577;28;20456;-65
2023/05/15 05:32:08;;;;;;;82.50;48.87;;;;;;;;;;4994648;28;20456;-65
2023/05/15 05:34:35;;;;;;;78.70;49.60;;;;;;;;;;4994813;28;20458;-65
2023/05/15 05:37:02;;;;;;;83.33;50.00;;;;;;;;;;4994121;28;20482;-65
2023/05/15 05:39:30;;;;;;;98.70;49.20;;;;;;;;;;4995176;28;20470;-65
2023/05/15 05:41:57;;;;;;;73.80;48.53;;;;;;;;;;4994333;28;20980;-65
2023/05/15 05:44:25;;;;;;;71.03;49.00;;;;;;;;;;4994018;28;20504;-65
2023/05/15 05:46:54;;;;;;;75.17;49.53;;;;;;;;;;4995087;28;20447;-65
2023/05/15 05:49:21;;;;;;;72.30;48.20;;;;;;;;;;4994381;28;20457;-65
2023/05/15 05:51:48;;;;;;;74.07;46.40;;;;;;;;;;4994865;28;20470;-65
2023/05/15 05:54:17;;;;;;;61.97;43.40;;;;;;;;;;4994881;28;20449;-65
2023/05/15 05:56:44;;;;;;;60.37;41.77;;;;;;;;;;4994294;28;20461;-65
2023/05/15 05:59:11;;;;;;;63.90;43.10;;;;;;;;;;4993951;28;20951;-65
2023/05/15 06:01:38;;;;;;;62.03;44.37;;;;;;;;;;4994522;28;20528;-65
2023/05/15 06:04:07;;;;;;;59.00;42.30;;;;;;;;;;4994453;28;20472;-65
2023/05/15 06:06:34;;;;;;;67.10;46.30;;;;;;;;;;4994181;28;21537;-65
2023/05/15 06:09:02;;;;;;;68.13;43.90;;;;;;;;;;4994276;28;20445;-64
2023/05/15 06:11:30;;;;;;;69.90;42.80;;;;;;;;;;4994154;28;20951;-65
2023/05/15 06:13:57;;;;;;;78.43;43.53;;;;;;;;;;4994047;28;20444;-65
2023/05/15 06:16:24;;;;;;;75.97;46.50;;;;;;;;;;4993873;28;20445;-65
2023/05/15 06:18:51;;;;;;;66.50;45.73;;;;;;;;;;4993635;28;20445;-65
2023/05/15 06:21:21;;;;;;;67.07;41.90;;;;;;;;;;4994105;28;20465;-65
2023/05/15 06:23:48;;;;;;;67.20;42.20;;;;;;;;;;4993930;28;20486;-65
2023/05/15 06:26:15;;;;;;;66.23;42.70;;;;;;;;;;4994004;28;20442;-65
2023/05/15 06:28:42;;;;;;;65.70;42.00;;;;;;;;;;4993969;28;20448;-65
2023/05/15 06:31:09;;;;;;;66.50;43.20;;;;;;;;;;4993944;28;20440;-65
2023/05/15 06:33:36;;;;;;;62.20;41.57;;;;;;;;;;4993668;28;20454;-65
2023/05/15 06:36:04;;;;;;;61.80;42.27;;;;;;;;;;4994067;28;20559;-65
2023/05/15 06:38:32;;;;;;;59.47;41.00;;;;;;;;;;4993756;28;20483;-65
2023/05/15 06:40:59;;;;;;;60.97;41.90;;;;;;;;;;4993699;28;20438;-65
2023/05/15 06:43:27;;;;;;;58.30;40.50;;;;;;;;;;4993448;28;20480;-65
2023/05/15 06:45:54;;;;;;;56.70;40.47;;;;;;;;;;4993603;28;20445;-65
2023/05/15 06:48:21;;;;;;;55.90;38.60;;;;;;;;;;4993745;28;20451;-65
2023/05/15 06:50:48;;;;;;;58.50;40.10;;;;;;;;;;4993845;28;20442;-65
2023/05/15 06:53:16;;;;;;;50.90;36.87;;;;;;;;;;4993726;28;20444;-65
2023/05/15 06:55:44;;;;;;;53.90;37.47;;;;;;;;;;4996315;28;20460;-65
2023/05/15 06:58:12;;;;;;;55.00;39.57;;;;;;;;;;4997861;28;20437;-65
2023/05/15 07:00:39;;;;;;;53.73;38.47;;;;;;;;;;4997737;28;20454;-65
2023/05/15 07:03:06;;;;;;;57.20;37.63;;;;;;;;;;4997685;28;20441;-65
2023/05/15 07:05:33;;;;;;;55.07;38.00;;;;;;;;;;4997483;28;20484;-65
2023/05/15 07:08:00;;;;;;;52.67;38.70;;;;;;;;;;4997626;28;20465;-65
2023/05/15 07:10:27;;;;;;;52.53;38.73;;;;;;;;;;4997830;28;20451;-66
2023/05/15 07:12:56;;;;;;;54.97;38.63;;;;;;;;;;4997114;28;20451;-65
2023/05/15 07:15:23;;;;;;;57.40;42.80;;;;;;;;;;4997373;28;20441;-65
2023/05/15 07:17:50;;;;;;;50.80;37.63;;;;;;;;;;4997365;28;20453;-65
2023/05/15 07:20:18;;;;;;;56.17;39.10;;;;;;;;;;4997382;28;20793;-65
2023/05/15 07:22:45;;;;;;;53.53;38.93;;;;;;;;;;4997192;28;20468;-65
2023/05/15 07:25:12;;;;;;;52.33;39.20;;;;;;;;;;4997187;28;20488;-65
2023/05/15 07:27:39;;;;;;;47.70;34.37;;;;;;;;;;4996750;28;20473;-65
2023/05/15 07:30:08;;;;;;;49.40;35.97;;;;;;;;;;4997407;28;20804;-65
2023/05/15 07:32:36;;;;;;;51.60;37.90;;;;;;;;;;4997213;28;20445;-65
2023/05/15 07:35:03;;;;;;;54.60;39.00;;;;;;;;;;4997140;28;20460;-65
2023/05/15 07:37:31;;;;;;;49.40;36.67;;;;;;;;;;4996599;28;20485;-66
2023/05/15 07:39:58;;;;;;;51.30;37.27;;;;;;;;;;4996987;28;20919;-66
2023/05/15 07:42:25;;;;;;;50.33;38.20;;;;;;;;;;4997053;28;20456;-66
2023/05/15 07:44:52;;;;;;;50.00;37.73;;;;;;;;;;4996871;28;20491;-65
2023/05/15 07:47:21;;;;;;;54.13;37.13;;;;;;;;;;4996916;28;20442;-65
2023/05/15 07:49:48;;;;;;;46.87;38.30;;;;;;;;;;4996460;28;20931;-66
2023/05/15 07:52:15;;;;;;;50.50;37.10;;;;;;;;;;4996840;28;20446;-65
2023/05/15 07:54:42;;;;;;;51.57;37.90;;;;;;;;;;4996899;28;20450;-65
2023/05/15 07:57:10;;;;;;;47.77;36.60;;;;;;;;;;4996445;28;20453;-66
2023/05/15 07:59:37;;;;;;;48.50;35.57;;;;;;;;;;4996215;28;20978;-65
2023/05/15 08:02:04;;;;;;;44.67;35.30;;;;;;;;;;4996885;28;21128;-66
2023/05/15 08:04:33;;;;;;;43.70;30.87;;;;;;;;;;4996684;28;20491;-65
2023/05/15 08:07:00;;;;;;;40.80;32.67;;;;;;;;;;4995646;28;20457;-65
2023/05/15 08:09:27;;;;;;;42.50;32.03;;;;;;;;;;4996539;28;20457;-65
2023/05/15 08:11:56;;;;;;;40.07;32.23;;;;;;;;;;4996185;28;20450;-65
2023/05/15 08:14:23;;;;;;;45.90;31.10;;;;;;;;;;4996041;28;20941;-65
2023/05/15 08:16:51;;;;;;;46.70;33.27;;;;;;;;;;4996368;28;20455;-65
2023/05/15 08:19:18;;;;;;;44.80;34.07;;;;;;;;;;4996188;28;20450;-65
2023/05/15 08:21:46;;;;;;;40.43;31.97;;;;;;;;;;4996189;28;20457;-65
2023/05/15 08:24:14;;;;;;;43.07;33.57;;;;;;;;;;4995997;28;20483;-66
2023/05/15 08:26:41;;;;;;;39.50;30.40;;;;;;;;;;4996486;28;20929;-65
2023/05/15 08:29:08;;;;;;;37.20;29.67;;;;;;;;;;4995682;28;20955;-65
2023/05/15 08:31:35;;;;;;;44.77;32.83;;;;;;;;;;4995830;28;20532;-65
2023/05/15 08:34:03;;;;;;;42.13;31.27;;;;;;;;;;4995457;28;20446;-66
2023/05/15 08:36:30;;;;;;;43.73;31.60;;;;;;;;;;4995670;28;20457;-66
2023/05/15 08:38:58;;;;;;;36.73;29.80;;;;;;;;;;4995719;28;20446;-66
2023/05/15 08:41:31;;;;;;;36.03;28.83;;;;;;;;;;4995490;28;20458;-65
2023/05/15 08:43:58;;;;;;;39.80;31.33;;;;;;;;;;4996125;28;20555;-65
2023/05/15 08:46:25;;;;;;;39.83;29.87;;;;;;;;;;4995655;28;20457;-65
2023/05/15 08:48:54;;;;;;;35.50;29.87;;;;;;;;;;4995302;28;20453;-66
2023/05/15 08:51:22;;;;;;;35.13;28.17;;;;;;;;;;4995335;28;20953;-66
2023/05/15 08:53:49;;;;;;;39.60;29.23;;;;;;;;;;4995609;28;20448;-67
2023/05/15 08:56:18;;;;;;;38.30;31.67;;;;;;;;;;4995526;28;20443;-65
2023/05/15 08:58:46;;;;;;;40.50;29.17;;;;;;;;;;4995080;28;20459;-65
2023/05/15 09:01:14;;;;;;;34.80;28.90;;;;;;;;;;4995368;28;20505;-65
2023/05/15 09:03:41;;;;;;;36.07;27.97;;;;;;;;;;4995087;28;20447;-66
2023/05/15 09:06:09;;;;;;;36.43;29.70;;;;;;;;;;4994924;28;20486;-65
2023/05/15 09:08:37;;;;;;;37.03;30.13;;;;;;;;;;4995590;28;20458;-65
2023/05/15 09:11:06;;;;;;;39.37;30.60;;;;;;;;;;4994854;28;20448;-66
2023/05/15 09:13:35;;;;;;;38.30;30.90;;;;;;;;;;4995134;28;20453;-65
2023/05/15 09:16:02;;;;;;;38.50;29.77;;;;;;;;;;4994707;28;20458;-66
2023/05/15 09:18:29;;;;;;;38.80;29.20;;;;;;;;;;4994739;28;20458;-66
2023/05/15 09:20:56;;;;;;;37.77;27.30;;;;;;;;;;4995183;28;20451;-65
2023/05/15 09:23:24;;;;;;;32.57;28.43;;;;;;;;;;4995577;28;20796;-65
2023/05/15 09:25:54;;;;;;;36.23;25.50;;;;;;;;;;4994824;28;20650;-65
2023/05/15 09:28:31;;;;;;;34.00;27.87;;;;;;;;;;4994996;28;20446;-65
2023/05/15 09:31:00;;;;;;;38.60;30.20;;;;;;;;;;4994830;28;20442;-64
2023/05/15 09:33:29;;;;;;;36.20;29.70;;;;;;;;;;4994505;28;20944;-64
2023/05/15 09:35:56;;;;;;;33.57;27.73;;;;;;;;;;4994832;28;20510;-65
2023/05/15 09:38:23;;;;;;;37.60;31.33;;;;;;;;;;4994235;28;20988;-65
2023/05/15 09:40:51;;;;;;;36.50;29.53;;;;;;;;;;4994910;28;20541;-65
2023/05/15 09:43:18;;;;;;;32.97;25.90;;;;;;;;;;4994715;28;20455;-64
2023/05/15 09:45:48;;;;;;;36.23;29.10;;;;;;;;;;4994431;28;20493;-64
2023/05/15 09:48:16;;;;;;;35.30;27.83;;;;;;;;;;4994629;28;20535;-64
2023/05/15 09:50:43;;;;;;;38.53;28.83;;;;;;;;;;4994438;28;20448;-64
2023/05/15 09:53:12;;;;;;;35.97;26.50;;;;;;;;;;4994429;28;20447;-64
2023/05/15 09:55:41;;;;;;;34.83;28.60;;;;;;;;;;4994853;28;20451;-64
2023/05/15 09:58:10;;;;;;;37.47;28.90;;;;;;;;;;4994343;28;20816;-64
2023/05/15 10:00:37;;;;;;;35.33;29.53;;;;;;;;;;4994324;28;20448;-65
2023/05/15 10:03:05;;;;;;;36.07;30.10;;;;;;;;;;4994016;28;20456;-65
2023/05/15 10:05:34;;;;;;;37.97;30.43;;;;;;;;;;4994335;28;20479;-66
2023/05/15 10:08:01;;;;;;;38.17;31.90;;;;;;;;;;4994409;28;20453;-64
2023/05/15 10:10:29;;;;;;;40.67;30.27;;;;;;;;;;4994256;28;20523;-64
2023/05/15 10:12:58;;;;;;;36.00;28.30;;;;;;;;;;4993966;28;20933;-64
2023/05/15 10:15:26;;;;;;;36.10;29.90;;;;;;;;;;4994085;28;20482;-64
2023/05/15 10:17:53;;;;;;;40.23;30.83;;;;;;;;;;4994220;28;20744;-65
2023/05/15 10:20:21;;;;;;;35.57;29.53;;;;;;;;;;4994086;28;20506;-64
2023/05/15 10:22:50;;;;;;;35.90;30.40;;;;;;;;;;4993796;28;20443;-64
2023/05/15 10:25:22;;;;;;;35.07;29.20;;;;;;;;;;4993916;28;20482;-65
2023/05/15 10:27:50;;;;;;;35.63;28.30;;;;;;;;;;4994395;28;20523;-65
2023/05/15 10:30:18;;;;;;;33.23;28.90;;;;;;;;;;4994119;28;20451;-65
2023/05/15 10:32:45;;;;;;;33.87;28.40;;;;;;;;;;4994518;28;20445;-64
2023/05/15 10:35:13;;;;;;;40.00;30.13;;;;;;;;;;4993884;28;20852;-65
2023/05/15 10:37:40;;;;;;;38.63;29.77;;;;;;;;;;4993780;28;20483;-65
2023/05/15 10:40:10;;;;;;;35.67;29.17;;;;;;;;;;4993601;28;20448;-64
2023/05/15 10:42:37;;;;;;;34.20;30.20;;;;;;;;;;4993788;28;20614;-64
2023/05/15 10:45:06;;;;;;;33.47;27.63;;;;;;;;;;4993744;28;20575;-64
2023/05/15 10:47:34;;;;;;;34.60;30.00;;;;;;;;;;4993687;28;20462;-64
2023/05/15 10:50:01;;;;;;;29.77;26.30;;;;;;;;;;4993882;28;20450;-64
2023/05/15 10:52:28;;;;;;;35.30;30.20;;;;;;;;;;4993723;28;20447;-64
2023/05/15 10:54:56;;;;;;;39.23;31.33;;;;;;;;;;4993443;28;20452;-64
2023/05/15 10:57:24;;;;;;;37.63;30.27;;;;;;;;;;4993689;28;20451;-64
2023/05/15 10:59:51;;;;;;;35.37;31.10;;;;;;;;;;4993698;28;20438;-65
2023/05/15 11:02:23;;;;;;;35.30;28.97;;;;;;;;;;4993318;28;20952;-64
2023/05/15 11:04:55;;;;;;;34.60;29.37;;;;;;;;;;4993758;28;20492;-64
2023/05/15 11:07:23;;;;;;;36.87;29.67;;;;;;;;;;4993845;28;20845;-64
2023/05/15 11:09:50;;;;;;;33.33;28.67;;;;;;;;;;4993584;28;20494;-65
2023/05/15 11:12:17;;;;;;;35.00;28.10;;;;;;;;;;4993496;28;20443;-66
2023/05/15 11:15:06;;;;;;;34.30;28.03;;;;;;;;;;4993251;28;20544;-65
2023/05/15 11:17:33;;;;;;;33.10;29.27;;;;;;;;;;4993044;28;20476;-65
2023/05/15 11:20:00;;;;;;;30.67;27.00;;;;;;;;;;4993616;28;20447;-64
2023/05/15 11:22:29;;;;;;;31.20;27.77;;;;;;;;;;4993561;28;20436;-64
2023/05/15 11:24:59;;;;;;;31.37;27.93;;;;;;;;;;4993085;28;20484;-64
2023/05/15 11:27:27;;;;;;;32.97;29.40;;;;;;;;;;4993534;28;20454;-65
2023/05/15 11:30:05;;;;;;;31.90;27.43;;;;;;;;;;4993272;28;20447;-64
2023/05/15 11:32:32;;;;;;;28.27;24.30;;;;;;;;;;4993386;28;20433;-66
2023/05/15 11:35:00;;;;;;;28.00;24.97;;;;;;;;;;4993443;28;20529;-65
2023/05/15 11:37:28;;;;;;;27.53;24.63;;;;;;;;;;4993036;28;20538;-64
2023/05/15 11:39:55;;;;;;;27.60;24.80;;;;;;;;;;4993518;28;20531;-65
2023/05/15 11:42:23;;;;;;;27.70;23.33;;;;;;;;;;4994600;28;20499;-64
2023/05/15 11:44:50;;;;;;;28.90;25.57;;;;;;;;;;4996821;28;20444;-64
2023/05/15 11:47:18;;;;;;;27.60;24.80;;;;;;;;;;4996471;28;20486;-64
2023/05/15 11:49:45;;;;;;;27.00;24.20;;;;;;;;;;5000225;28;20446;-65
2023/05/15 11:52:13;;;;;;;27.70;24.70;;;;;;;;;;5014658;28;20456;-65
2023/05/15 11:54:40;;;;;;;33.13;25.07;;;;;;;;;;5014880;28;20488;-65
2023/05/15 11:57:08;;;;;;;29.20;23.50;;;;;;;;;;5015383;28;20451;-65
2023/05/15 11:59:35;;;;;;;27.00;24.20;;;;;;;;;;5015688;28;20538;-65
2023/05/15 12:02:02;;;;;;;26.63;23.63;;;;;;;;;;5014870;28;20534;-64
2023/05/15 12:04:34;;;;;;;25.47;22.70;;;;;;;;;;5015228;28;20453;-65
2023/05/15 12:07:02;;;;;;;24.83;22.30;;;;;;;;;;5015618;28;20535;-65
2023/05/15 12:09:29;;;;;;;24.27;21.73;;;;;;;;;;5015235;28;20489;-64
2023/05/15 12:11:56;;;;;;;25.20;22.60;;;;;;;;;;5014978;28;20526;-65
2023/05/15 12:14:27;;;;;;;23.03;20.63;;;;;;;;;;5015100;28;20450;-64
2023/05/15 12:17:01;;;;;;;23.90;20.90;;;;;;;;;;5015006;28;20498;-64
2023/05/15 12:19:28;;;;;;;24.13;21.27;;;;;;;;;;5015596;28;20431;-65
2023/05/15 12:21:57;;;;;;;18.90;17.03;;;;;;;;;;5015251;28;20453;-65
2023/05/15 12:24:24;;;;;;;20.03;17.50;;;;;;;;;;5015275;28;20542;-64
2023/05/15 12:26:51;;;;;;;19.40;17.30;;;;;;;;;;5014886;28;20491;-64
2023/05/15 12:29:19;;;;;;;19.93;17.87;;;;;;;;;;5014720;28;20542;-65
2023/05/15 12:31:46;;;;;;;21.20;18.40;;;;;;;;;;5014924;28;20547;-64
2023/05/15 12:34:13;;;;;;;19.37;17.47;;;;;;;;;;5014772;28;20762;-64
2023/05/15 12:36:42;;;;;;;19.07;14.77;;;;;;;;;;5014279;28;20471;-65
2023/05/15 12:39:11;;;;;;;13.70;12.07;;;;;;;;;;5015467;28;20475;-65
2023/05/15 12:41:39;;;;;;;15.00;12.03;;;;;;;;;;5014726;28;20448;-65
2023/05/15 12:44:06;;;;;;;12.37;11.17;;;;;;;;;;5014374;28;20451;-65
2023/05/15 12:46:33;;;;;;;13.77;12.40;;;;;;;;;;5014669;28;20478;-65
2023/05/15 12:49:00;;;;;;;16.23;13.70;;;;;;;;;;5014984;28;20529;-65
2023/05/15 12:51:28;;;;;;;15.33;13.80;;;;;;;;;;5014985;28;20453;-65
2023/05/15 12:53:57;;;;;;;14.40;13.10;;;;;;;;;;5014752;28;20444;-64
2023/05/15 12:56:26;;;;;;;14.87;13.30;;;;;;;;;;5015088;28;20473;-64
2023/05/15 12:58:54;;;;;;;12.87;11.53;;;;;;;;;;5014798;28;20435;-64
2023/05/15 13:01:22;;;;;;;10.23;9.33;;;;;;;;;;5015166;28;20466;-65
2023/05/15 13:03:49;;;;;;;7.47;6.17;;;;;;;;;;5014998;28;20431;-64
2023/05/15 13:06:17;;;;;;;5.90;5.50;;;;;;;;;;5014772;28;20525;-65
2023/05/15 13:08:44;;;;;;;7.20;6.60;;;;;;;;;;5014878;28;20431;-65
2023/05/15 13:11:13;;;;;;;11.30;10.20;;;;;;;;;;5014998;28;20445;-65
2023/05/15 13:13:45;;;;;;;12.17;10.43;;;;;;;;;;5014923;28;20465;-64
2023/05/15 13:16:19;;;;;;;10.57;9.60;;;;;;;;;;5015244;28;20531;-64
2023/05/15 13:18:47;;;;;;;8.63;7.93;;;;;;;;;;5014641;28;20446;-68
2023/05/15 13:21:14;;;;;;;10.47;8.67;;;;;;;;;;4994740;28;20443;-65
2023/05/15 13:23:41;;;;;;;13.93;10.13;;;;;;;;;;4994914;28;20439;-64
2023/05/15 13:26:08;;;;;;;13.50;9.97;;;;;;;;;;4995005;28;20475;-65
2023/05/15 13:28:35;;;;;;;9.27;8.23;;;;;;;;;;4994737;28;20447;-64
2023/05/15 13:31:04;;;;;;;9.50;8.63;;;;;;;;;;4994727;28;20802;-65
2023/05/15 13:33:32;;;;;;;9.47;8.43;;;;;;;;;;4994543;28;20451;-64
2023/05/15 13:36:00;;;;;;;12.60;8.30;;;;;;;;;;4994058;28;20499;-66
2023/05/15 13:38:27;;;;;;;9.40;8.43;;;;;;;;;;4993689;28;20490;-65
2023/05/15 13:40:54;;;;;;;12.00;8.50;;;;;;;;;;4994148;28;20968;-65
2023/05/15 13:43:21;;;;;;;12.43;9.07;;;;;;;;;;4994247;28;20534;-65
2023/05/15 13:45:48;;;;;;;9.93;7.80;;;;;;;;;;4994244;28;20814;-65
2023/05/15 13:48:17;;;;;;;9.17;8.37;;;;;;;;;;4994199;28;20536;-65
2023/05/15 13:50:44;;;;;;;8.87;7.70;;;;;;;;;;5010383;28;20451;-65
2023/05/15 13:53:15;;;;;;;9.23;8.43;;;;;;;;;;5013475;28;20435;-65
2023/05/15 13:55:43;;;;;;;8.77;7.43;;;;;;;;;;5011551;28;20487;-65
2023/05/15 13:58:11;;;;;;;9.23;8.43;;;;;;;;;;5013767;28;20443;-65
2023/05/15 14:00:39;;;;;;;9.63;8.73;;;;;;;;;;5013561;28;20455;-64
2023/05/15 14:03:06;;;;;;;9.90;9.00;;;;;;;;;;5014485;28;20440;-64
2023/05/15 14:05:35;;;;;;;8.83;8.00;;;;;;;;;;5013329;28;20447;-64
2023/05/15 14:08:03;;;;;;;10.13;7.33;;;;;;;;;;5014004;28;20455;-65
2023/05/15 14:10:30;;;;;;;9.43;8.30;;;;;;;;;;5013809;28;20491;-64
2023/05/15 14:12:57;;;;;;;8.33;7.53;;;;;;;;;;5013696;28;20509;-65
2023/05/15 14:15:24;;;;;;;9.63;8.47;;;;;;;;;;5013675;28;20444;-64
2023/05/15 14:17:53;;;;;;;10.10;9.10;;;;;;;;;;5014480;28;20796;-65
2023/05/15 14:20:20;;;;;;;8.27;7.47;;;;;;;;;;5013301;28;20451;-64
2023/05/15 14:22:49;;;;;;;7.83;7.07;;;;;;;;;;5013980;28;20453;-64